sensor_id;sensor_type;location;lat;lon;timestamp;pressure;altitude;pressure_sealevel;temperature;humidity
20620;BME280;10469;42.720;23.252;2024-01-16T00:01:20;93389.81;;;4.60;100.00
20620;BME280;10469;42.720;23.252;2024-01-16T00:03:46;93408.25;;;4.26;100.00
20620;BME280;10469;42.720;23.252;2024-01-16T00:06:13;93419.56;;;4.10;100.00
20620;BME280;10469;42.720;23.252;2024-01-16T00:08:38;93377.50;;;3.90;100.00
20620;BME280;10469;42.720;23.252;2024-01-16T00:11:04;93424.88;;;3.86;100.00
20620;BME280;10469;42.720;23.252;2024-01-16T00:13:30;93405.19;;;3.82;100.00
20620;BME280;10469;42.720;23.252;2024-01-16T00:15:56;93427.66;;;4.15;100.00
20620;BME280;10469;42.720;23.252;2024-01-16T00:18:22;93388.22;;;4.07;100.00
20620;BME280;10469;42.720;23.252;2024-01-16T00:20:48;93434.91;;;4.19;100.00
20620;BME280;10469;42.720;23.252;2024-01-16T00:23:14;93411.13;;;4.24;100.00
20620;BME280;10469;42.720;23.252;2024-01-16T00:25:39;93443.34;;;4.16;100.00
20620;BME280;10469;42.720;23.252;2024-01-16T00:28:06;93386.47;;;4.12;100.00
20620;BME280;10469;42.720;23.252;2024-01-16T00:30:32;93406.53;;;4.08;100.00
20620;BME280;10469;42.720;23.252;2024-01-16T00:32:59;93372.31;;;4.07;100.00
20620;BME280;10469;42.720;23.252;2024-01-16T00:35:24;93448.94;;;4.32;100.00
20620;BME280;10469;42.720;23.252;2024-01-16T00:37:50;93445.84;;;4.35;100.00
20620;BME280;10469;42.720;23.252;2024-01-16T00:40:16;93402.31;;;5.33;100.00
20620;BME280;10469;42.720;23.252;2024-01-16T00:42:41;93434.41;;;5.77;100.00
20620;BME280;10469;42.720;23.252;2024-01-16T00:45:07;93402.97;;;5.57;100.00
20620;BME280;10469;42.720;23.252;2024-01-16T00:47:32;93425.72;;;4.91;100.00
20620;BME280;10469;42.720;23.252;2024-01-16T00:49:58;93415.66;;;5.21;100.00
20620;BME280;10469;42.720;23.252;2024-01-16T00:52:26;93425.38;;;5.44;100.00
20620;BME280;10469;42.720;23.252;2024-01-16T00:54:53;93425.28;;;5.56;100.00
20620;BME280;10469;42.720;23.252;2024-01-16T00:57:18;93422.59;;;6.40;100.00
20620;BME280;10469;42.720;23.252;2024-01-16T00:59:48;93422.09;;;6.65;100.00
20620;BME280;10469;42.720;23.252;2024-01-16T01:02:14;93427.69;;;6.25;100.00
20620;BME280;10469;42.720;23.252;2024-01-16T01:04:40;93446.41;;;5.63;100.00
20620;BME280;10469;42.720;23.252;2024-01-16T01:07:07;93463.56;;;5.26;100.00
20620;BME280;10469;42.720;23.252;2024-01-16T01:09:33;93464.72;;;5.02;100.00
20620;BME280;10469;42.720;23.252;2024-01-16T01:11:59;93450.88;;;5.00;100.00
20620;BME280;10469;42.720;23.252;2024-01-16T01:14:25;93452.94;;;4.69;100.00
20620;BME280;10469;42.720;23.252;2024-01-16T01:16:52;93451.19;;;4.75;100.00
20620;BME280;10469;42.720;23.252;2024-01-16T01:19:18;93449.63;;;4.62;100.00
20620;BME280;10469;42.720;23.252;2024-01-16T01:21:43;93447.97;;;4.61;100.00
20620;BME280;10469;42.720;23.252;2024-01-16T01:24:09;93430.44;;;4.60;100.00
20620;BME280;10469;42.720;23.252;2024-01-16T01:26:35;93429.69;;;4.36;100.00
20620;BME280;10469;42.720;23.252;2024-01-16T01:29:01;93434.59;;;4.68;100.00
20620;BME280;10469;42.720;23.252;2024-01-16T01:31:26;93431.06;;;4.39;100.00
20620;BME280;10469;42.720;23.252;2024-01-16T01:33:52;93400.88;;;4.05;100.00
20620;BME280;10469;42.720;23.252;2024-01-16T01:36:17;93411.25;;;4.70;100.00
20620;BME280;10469;42.720;23.252;2024-01-16T01:38:43;93437.03;;;4.98;100.00
20620;BME280;10469;42.720;23.252;2024-01-16T01:41:09;93428.81;;;4.99;100.00
20620;BME280;10469;42.720;23.252;2024-01-16T01:43:37;93436.34;;;4.91;100.00
20620;BME280;10469;42.720;23.252;2024-01-16T01:46:09;93446.88;;;4.86;100.00
20620;BME280;10469;42.720;23.252;2024-01-16T01:48:41;93443.50;;;4.90;100.00
20620;BME280;10469;42.720;23.252;2024-01-16T01:51:08;93447.06;;;4.96;100.00
20620;BME280;10469;42.720;23.252;2024-01-16T01:53:34;93450.63;;;4.73;100.00
20620;BME280;10469;42.720;23.252;2024-01-16T01:56:09;93454.66;;;4.75;100.00
20620;BME280;10469;42.720;23.252;2024-01-16T01:58:36;93442.56;;;4.56;100.00
20620;BME280;10469;42.720;23.252;2024-01-16T02:01:05;93434.63;;;4.44;100.00
20620;BME280;10469;42.720;23.252;2024-01-16T02:03:36;93455.16;;;4.49;100.00
20620;BME280;10469;42.720;23.252;2024-01-16T02:06:05;93448.22;;;4.60;100.00
20620;BME280;10469;42.720;23.252;2024-01-16T02:08:31;93453.00;;;4.34;100.00
20620;BME280;10469;42.720;23.252;2024-01-16T02:10:57;93443.19;;;4.46;100.00
20620;BME280;10469;42.720;23.252;2024-01-16T02:13:23;93448.50;;;4.35;100.00
20620;BME280;10469;42.720;23.252;2024-01-16T02:15:49;93460.59;;;4.31;100.00
20620;BME280;10469;42.720;23.252;2024-01-16T02:18:16;93462.09;;;4.26;100.00
20620;BME280;10469;42.720;23.252;2024-01-16T02:20:42;93459.91;;;4.35;100.00
20620;BME280;10469;42.720;23.252;2024-01-16T02:23:10;93473.53;;;4.39;100.00
20620;BME280;10469;42.720;23.252;2024-01-16T02:25:35;93480.78;;;4.55;100.00
20620;BME280;10469;42.720;23.252;2024-01-16T02:28:02;93492.09;;;4.50;100.00
20620;BME280;10469;42.720;23.252;2024-01-16T02:30:28;93503.41;;;4.34;100.00
20620;BME280;10469;42.720;23.252;2024-01-16T02:32:54;93492.78;;;4.22;100.00
20620;BME280;10469;42.720;23.252;2024-01-16T02:35:19;93512.88;;;4.30;100.00
20620;BME280;10469;42.720;23.252;2024-01-16T02:37:45;93512.88;;;4.07;100.00
20620;BME280;10469;42.720;23.252;2024-01-16T02:40:11;93517.25;;;4.13;100.00
20620;BME280;10469;42.720;23.252;2024-01-16T02:42:36;93529.47;;;4.02;100.00
20620;BME280;10469;42.720;23.252;2024-01-16T02:45:04;93545.19;;;4.15;100.00
20620;BME280;10469;42.720;23.252;2024-01-16T02:47:30;93542.88;;;4.31;100.00
20620;BME280;10469;42.720;23.252;2024-01-16T02:49:55;93557.66;;;4.50;100.00
20620;BME280;10469;42.720;23.252;2024-01-16T02:52:22;93567.13;;;4.46;100.00
20620;BME280;10469;42.720;23.252;2024-01-16T02:54:48;93553.84;;;4.46;100.00
20620;BME280;10469;42.720;23.252;2024-01-16T02:57:13;93566.28;;;4.57;100.00
20620;BME280;10469;42.720;23.252;2024-01-16T02:59:39;93579.22;;;4.65;100.00
20620;BME280;10469;42.720;23.252;2024-01-16T03:02:04;93570.31;;;4.95;100.00
20620;BME280;10469;42.720;23.252;2024-01-16T03:04:30;93560.75;;;4.70;100.00
20620;BME280;10469;42.720;23.252;2024-01-16T03:06:56;93580.94;;;4.83;100.00
20620;BME280;10469;42.720;23.252;2024-01-16T03:09:21;93604.50;;;4.80;100.00
20620;BME280;10469;42.720;23.252;2024-01-16T03:11:47;93608.19;;;4.55;100.00
20620;BME280;10469;42.720;23.252;2024-01-16T03:14:13;93638.91;;;4.51;100.00
20620;BME280;10469;42.720;23.252;2024-01-16T03:16:39;93635.19;;;4.52;100.00
20620;BME280;10469;42.720;23.252;2024-01-16T03:19:05;93625.81;;;4.26;100.00
20620;BME280;10469;42.720;23.252;2024-01-16T03:21:30;93652.34;;;4.26;100.00
20620;BME280;10469;42.720;23.252;2024-01-16T03:23:56;93658.22;;;4.16;100.00
20620;BME280;10469;42.720;23.252;2024-01-16T03:26:22;93663.19;;;4.24;100.00
20620;BME280;10469;42.720;23.252;2024-01-16T03:28:47;93655.66;;;4.10;100.00
20620;BME280;10469;42.720;23.252;2024-01-16T03:31:13;93650.50;;;3.85;100.00
20620;BME280;10469;42.720;23.252;2024-01-16T03:33:39;93682.78;;;3.82;100.00
20620;BME280;10469;42.720;23.252;2024-01-16T03:36:08;93678.34;;;3.75;100.00
20620;BME280;10469;42.720;23.252;2024-01-16T03:38:38;93679.41;;;3.56;100.00
20620;BME280;10469;42.720;23.252;2024-01-16T03:41:04;93694.13;;;3.70;100.00
20620;BME280;10469;42.720;23.252;2024-01-16T03:43:34;93707.38;;;3.70;100.00
20620;BME280;10469;42.720;23.252;2024-01-16T03:46:00;93711.66;;;3.53;100.00
20620;BME280;10469;42.720;23.252;2024-01-16T03:48:25;93701.63;;;3.37;100.00
20620;BME280;10469;42.720;23.252;2024-01-16T03:50:51;93712.09;;;3.32;100.00
20620;BME280;10469;42.720;23.252;2024-01-16T03:53:17;93724.97;;;3.28;100.00
20620;BME280;10469;42.720;23.252;2024-01-16T03:55:42;93729.31;;;3.22;100.00
20620;BME280;10469;42.720;23.252;2024-01-16T03:58:08;93734.50;;;3.11;100.00
20620;BME280;10469;42.720;23.252;2024-01-16T04:00:33;93742.97;;;3.19;100.00
20620;BME280;10469;42.720;23.252;2024-01-16T04:02:59;93757.72;;;3.15;100.00
20620;BME280;10469;42.720;23.252;2024-01-16T04:05:25;93763.50;;;3.06;100.00
20620;BME280;10469;42.720;23.252;2024-01-16T04:07:50;93774.03;;;3.12;100.00
20620;BME280;10469;42.720;23.252;2024-01-16T04:10:17;93781.59;;;3.09;100.00
20620;BME280;10469;42.720;23.252;2024-01-16T04:12:43;93794.63;;;3.10;100.00
20620;BME280;10469;42.720;23.252;2024-01-16T04:15:09;93798.03;;;3.17;100.00
20620;BME280;10469;42.720;23.252;2024-01-16T04:17:35;93790.97;;;3.11;100.00
20620;BME280;10469;42.720;23.252;2024-01-16T04:20:00;93808.78;;;3.22;100.00
20620;BME280;10469;42.720;23.252;2024-01-16T04:22:26;93787.81;;;2.96;100.00
20620;BME280;10469;42.720;23.252;2024-01-16T04:24:51;93800.84;;;2.97;100.00
20620;BME280;10469;42.720;23.252;2024-01-16T04:27:18;93802.53;;;2.92;100.00
20620;BME280;10469;42.720;23.252;2024-01-16T04:29:43;93799.16;;;2.78;100.00
20620;BME280;10469;42.720;23.252;2024-01-16T04:32:09;93806.13;;;2.72;100.00
20620;BME280;10469;42.720;23.252;2024-01-16T04:34:34;93794.63;;;2.60;100.00
20620;BME280;10469;42.720;23.252;2024-01-16T04:37:00;93800.19;;;2.77;100.00
20620;BME280;10469;42.720;23.252;2024-01-16T04:39:26;93789.09;;;2.62;100.00
20620;BME280;10469;42.720;23.252;2024-01-16T04:41:51;93817.22;;;2.56;100.00
20620;BME280;10469;42.720;23.252;2024-01-16T04:44:17;93826.56;;;2.59;100.00
20620;BME280;10469;42.720;23.252;2024-01-16T04:46:42;93850.13;;;2.67;100.00
20620;BME280;10469;42.720;23.252;2024-01-16T04:49:08;93844.50;;;2.57;100.00
20620;BME280;10469;42.720;23.252;2024-01-16T04:51:34;93871.44;;;2.47;100.00
20620;BME280;10469;42.720;23.252;2024-01-16T04:54:00;93874.66;;;2.49;100.00
20620;BME280;10469;42.720;23.252;2024-01-16T04:56:25;93879.00;;;2.37;100.00
20620;BME280;10469;42.720;23.252;2024-01-16T04:58:51;93902.75;;;2.50;100.00
20620;BME280;10469;42.720;23.252;2024-01-16T05:01:18;93892.03;;;2.38;100.00
20620;BME280;10469;42.720;23.252;2024-01-16T05:03:44;93917.81;;;2.49;100.00
20620;BME280;10469;42.720;23.252;2024-01-16T05:06:15;93915.78;;;2.45;100.00
20620;BME280;10469;42.720;23.252;2024-01-16T05:08:41;93922.53;;;2.41;100.00
20620;BME280;10469;42.720;23.252;2024-01-16T05:11:07;93924.81;;;2.31;100.00
20620;BME280;10469;42.720;23.252;2024-01-16T05:13:33;93931.50;;;2.40;100.00
20620;BME280;10469;42.720;23.252;2024-01-16T05:15:59;93940.28;;;2.34;100.00
20620;BME280;10469;42.720;23.252;2024-01-16T05:18:24;93932.47;;;2.45;100.00
20620;BME280;10469;42.720;23.252;2024-01-16T05:20:50;93948.16;;;2.47;100.00
20620;BME280;10469;42.720;23.252;2024-01-16T05:23:16;93939.00;;;2.43;100.00
20620;BME280;10469;42.720;23.252;2024-01-16T05:25:41;93950.75;;;2.60;100.00
20620;BME280;10469;42.720;23.252;2024-01-16T05:28:07;93950.22;;;2.38;100.00
20620;BME280;10469;42.720;23.252;2024-01-16T05:30:32;93972.97;;;2.46;100.00
20620;BME280;10469;42.720;23.252;2024-01-16T05:32:59;93978.44;;;2.58;100.00
20620;BME280;10469;42.720;23.252;2024-01-16T05:35:27;93985.78;;;2.49;100.00
20620;BME280;10469;42.720;23.252;2024-01-16T05:37:54;93992.28;;;2.53;100.00
20620;BME280;10469;42.720;23.252;2024-01-16T05:40:21;93997.63;;;2.46;100.00
20620;BME280;10469;42.720;23.252;2024-01-16T05:42:48;94022.03;;;2.55;100.00
20620;BME280;10469;42.720;23.252;2024-01-16T05:45:14;94013.25;;;2.61;100.00
20620;BME280;10469;42.720;23.252;2024-01-16T05:47:39;94024.09;;;2.40;100.00
20620;BME280;10469;42.720;23.252;2024-01-16T05:50:06;94029.78;;;2.43;100.00
20620;BME280;10469;42.720;23.252;2024-01-16T05:52:31;94020.84;;;2.31;100.00
20620;BME280;10469;42.720;23.252;2024-01-16T05:54:57;94041.19;;;2.44;100.00
20620;BME280;10469;42.720;23.252;2024-01-16T05:57:25;94054.63;;;2.36;100.00
20620;BME280;10469;42.720;23.252;2024-01-16T05:59:51;94048.94;;;2.25;100.00
20620;BME280;10469;42.720;23.252;2024-01-16T06:02:17;94042.59;;;2.46;100.00
20620;BME280;10469;42.720;23.252;2024-01-16T06:04:42;94057.06;;;2.24;100.00
20620;BME280;10469;42.720;23.252;2024-01-16T06:07:08;94066.19;;;2.48;100.00
20620;BME280;10469;42.720;23.252;2024-01-16T06:09:38;94063.78;;;2.20;100.00
20620;BME280;10469;42.720;23.252;2024-01-16T06:12:05;94084.72;;;2.28;100.00
20620;BME280;10469;42.720;23.252;2024-01-16T06:14:32;94082.91;;;2.42;100.00
20620;BME280;10469;42.720;23.252;2024-01-16T06:16:58;94103.38;;;2.80;100.00
20620;BME280;10469;42.720;23.252;2024-01-16T06:19:24;94107.91;;;2.72;100.00
20620;BME280;10469;42.720;23.252;2024-01-16T06:21:50;94115.25;;;2.64;100.00
20620;BME280;10469;42.720;23.252;2024-01-16T06:24:15;94104.41;;;2.85;100.00
20620;BME280;10469;42.720;23.252;2024-01-16T06:26:41;94119.13;;;2.41;100.00
20620;BME280;10469;42.720;23.252;2024-01-16T06:29:08;94139.06;;;2.44;100.00
20620;BME280;10469;42.720;23.252;2024-01-16T06:31:33;94148.81;;;2.63;100.00
20620;BME280;10469;42.720;23.252;2024-01-16T06:33:59;94162.06;;;2.57;100.00
20620;BME280;10469;42.720;23.252;2024-01-16T06:36:25;94149.03;;;2.48;100.00
20620;BME280;10469;42.720;23.252;2024-01-16T06:38:51;94162.88;;;2.57;100.00
20620;BME280;10469;42.720;23.252;2024-01-16T06:41:17;94154.13;;;2.30;100.00
20620;BME280;10469;42.720;23.252;2024-01-16T06:43:43;94174.47;;;2.49;100.00
20620;BME280;10469;42.720;23.252;2024-01-16T06:46:09;94178.38;;;2.34;100.00
20620;BME280;10469;42.720;23.252;2024-01-16T06:48:36;94184.25;;;2.49;100.00
20620;BME280;10469;42.720;23.252;2024-01-16T06:51:05;94192.38;;;2.54;100.00
20620;BME280;10469;42.720;23.252;2024-01-16T06:53:30;94205.63;;;2.47;100.00
20620;BME280;10469;42.720;23.252;2024-01-16T06:55:56;94201.16;;;2.68;100.00
20620;BME280;10469;42.720;23.252;2024-01-16T06:58:22;94206.06;;;2.64;100.00
20620;BME280;10469;42.720;23.252;2024-01-16T07:00:47;94207.69;;;2.52;100.00
20620;BME280;10469;42.720;23.252;2024-01-16T07:03:13;94197.28;;;2.57;100.00
20620;BME280;10469;42.720;23.252;2024-01-16T07:05:39;94208.91;;;2.56;100.00
20620;BME280;10469;42.720;23.252;2024-01-16T07:08:09;94225.97;;;2.67;100.00
20620;BME280;10469;42.720;23.252;2024-01-16T07:10:35;94237.00;;;2.64;100.00
20620;BME280;10469;42.720;23.252;2024-01-16T07:13:01;94254.09;;;2.68;100.00
20620;BME280;10469;42.720;23.252;2024-01-16T07:15:27;94252.88;;;2.57;100.00
20620;BME280;10469;42.720;23.252;2024-01-16T07:17:53;94257.97;;;2.65;100.00
20620;BME280;10469;42.720;23.252;2024-01-16T07:20:19;94279.75;;;2.67;100.00
20620;BME280;10469;42.720;23.252;2024-01-16T07:22:45;94273.84;;;2.92;100.00
20620;BME280;10469;42.720;23.252;2024-01-16T07:25:11;94292.19;;;2.73;100.00
20620;BME280;10469;42.720;23.252;2024-01-16T07:27:37;94305.22;;;2.68;100.00
20620;BME280;10469;42.720;23.252;2024-01-16T07:30:06;94291.13;;;2.55;100.00
20620;BME280;10469;42.720;23.252;2024-01-16T07:32:33;94295.81;;;2.53;100.00
20620;BME280;10469;42.720;23.252;2024-01-16T07:34:58;94309.66;;;2.55;100.00
20620;BME280;10469;42.720;23.252;2024-01-16T07:37:24;94319.66;;;2.66;100.00
20620;BME280;10469;42.720;23.252;2024-01-16T07:39:50;94306.16;;;2.41;100.00
20620;BME280;10469;42.720;23.252;2024-01-16T07:42:15;94303.94;;;2.38;100.00
20620;BME280;10469;42.720;23.252;2024-01-16T07:44:41;94313.13;;;2.62;100.00
20620;BME280;10469;42.720;23.252;2024-01-16T07:47:07;94285.81;;;2.35;100.00
20620;BME280;10469;42.720;23.252;2024-01-16T07:49:33;94329.41;;;2.52;100.00
20620;BME280;10469;42.720;23.252;2024-01-16T07:51:59;94338.72;;;2.41;100.00
20620;BME280;10469;42.720;23.252;2024-01-16T07:54:24;94346.13;;;2.59;100.00
20620;BME280;10469;42.720;23.252;2024-01-16T07:56:51;94349.09;;;2.36;100.00
20620;BME280;10469;42.720;23.252;2024-01-16T07:59:16;94346.63;;;2.28;100.00
20620;BME280;10469;42.720;23.252;2024-01-16T08:01:42;94354.47;;;2.56;100.00
20620;BME280;10469;42.720;23.252;2024-01-16T08:04:08;94364.91;;;2.78;100.00
20620;BME280;10469;42.720;23.252;2024-01-16T08:06:34;94356.09;;;2.57;100.00
20620;BME280;10469;42.720;23.252;2024-01-16T08:08:59;94373.16;;;2.55;100.00
20620;BME280;10469;42.720;23.252;2024-01-16T08:11:25;94365.84;;;2.63;100.00
20620;BME280;10469;42.720;23.252;2024-01-16T08:13:51;94371.41;;;2.82;100.00
20620;BME280;10469;42.720;23.252;2024-01-16T08:16:16;94388.00;;;2.42;100.00
20620;BME280;10469;42.720;23.252;2024-01-16T08:18:43;94398.56;;;2.36;100.00
20620;BME280;10469;42.720;23.252;2024-01-16T08:21:09;94397.41;;;2.51;100.00
20620;BME280;10469;42.720;23.252;2024-01-16T08:23:34;94415.41;;;2.28;100.00
20620;BME280;10469;42.720;23.252;2024-01-16T08:26:00;94416.31;;;2.42;100.00
20620;BME280;10469;42.720;23.252;2024-01-16T08:28:26;94405.09;;;2.40;100.00
20620;BME280;10469;42.720;23.252;2024-01-16T08:30:52;94418.22;;;2.20;100.00
20620;BME280;10469;42.720;23.252;2024-01-16T08:33:18;94419.22;;;2.19;100.00
20620;BME280;10469;42.720;23.252;2024-01-16T08:35:43;94419.28;;;2.25;100.00
20620;BME280;10469;42.720;23.252;2024-01-16T08:38:09;94436.88;;;2.46;100.00
20620;BME280;10469;42.720;23.252;2024-01-16T08:40:35;94432.75;;;2.37;100.00
20620;BME280;10469;42.720;23.252;2024-01-16T08:43:01;94441.31;;;2.39;100.00
20620;BME280;10469;42.720;23.252;2024-01-16T08:45:26;94432.28;;;2.20;100.00
20620;BME280;10469;42.720;23.252;2024-01-16T08:47:52;94469.41;;;2.40;100.00
20620;BME280;10469;42.720;23.252;2024-01-16T08:50:18;94471.78;;;2.29;100.00
20620;BME280;10469;42.720;23.252;2024-01-16T08:52:44;94460.75;;;2.18;100.00
20620;BME280;10469;42.720;23.252;2024-01-16T08:55:09;94470.44;;;2.05;100.00
20620;BME280;10469;42.720;23.252;2024-01-16T08:57:36;94479.72;;;2.29;100.00
20620;BME280;10469;42.720;23.252;2024-01-16T09:00:06;94480.34;;;2.31;100.00
20620;BME280;10469;42.720;23.252;2024-01-16T09:02:34;94471.72;;;2.57;100.00
20620;BME280;10469;42.720;23.252;2024-01-16T09:05:00;94478.31;;;2.33;100.00
20620;BME280;10469;42.720;23.252;2024-01-16T09:07:26;94474.75;;;2.54;100.00
20620;BME280;10469;42.720;23.252;2024-01-16T09:09:52;94487.47;;;2.30;100.00
20620;BME280;10469;42.720;23.252;2024-01-16T09:12:18;94479.25;;;2.53;100.00
20620;BME280;10469;42.720;23.252;2024-01-16T09:14:43;94483.00;;;2.79;100.00
20620;BME280;10469;42.720;23.252;2024-01-16T09:17:09;94480.91;;;2.61;100.00
20620;BME280;10469;42.720;23.252;2024-01-16T09:19:35;94469.03;;;2.98;100.00
20620;BME280;10469;42.720;23.252;2024-01-16T09:22:01;94481.56;;;3.37;100.00
20620;BME280;10469;42.720;23.252;2024-01-16T09:24:28;94487.06;;;3.62;100.00
20620;BME280;10469;42.720;23.252;2024-01-16T09:26:54;94496.03;;;3.48;100.00
20620;BME280;10469;42.720;23.252;2024-01-16T09:29:19;94501.53;;;3.46;100.00
20620;BME280;10469;42.720;23.252;2024-01-16T09:31:46;94495.19;;;3.41;100.00
20620;BME280;10469;42.720;23.252;2024-01-16T09:34:12;94488.25;;;3.40;100.00
20620;BME280;10469;42.720;23.252;2024-01-16T09:36:39;94477.28;;;3.56;100.00
20620;BME280;10469;42.720;23.252;2024-01-16T09:39:06;94477.28;;;3.83;100.00
20620;BME280;10469;42.720;23.252;2024-01-16T09:41:37;94492.56;;;4.00;100.00
20620;BME280;10469;42.720;23.252;2024-01-16T09:44:03;94494.16;;;3.22;100.00
20620;BME280;10469;42.720;23.252;2024-01-16T09:46:31;94487.88;;;3.96;100.00
20620;BME280;10469;42.720;23.252;2024-01-16T09:48:57;94505.25;;;3.85;100.00
20620;BME280;10469;42.720;23.252;2024-01-16T09:51:24;94502.09;;;4.48;100.00
20620;BME280;10469;42.720;23.252;2024-01-16T09:53:50;94510.31;;;6.31;100.00
20620;BME280;10469;42.720;23.252;2024-01-16T09:56:17;94489.81;;;7.23;100.00
20620;BME280;10469;42.720;23.252;2024-01-16T09:58:48;94483.50;;;6.69;100.00
20620;BME280;10469;42.720;23.252;2024-01-16T10:01:15;94494.66;;;6.16;100.00
20620;BME280;10469;42.720;23.252;2024-01-16T10:03:44;94487.16;;;6.32;100.00
20620;BME280;10469;42.720;23.252;2024-01-16T10:06:10;94498.34;;;5.27;100.00
20620;BME280;10469;42.720;23.252;2024-01-16T10:08:37;94488.44;;;4.38;100.00
20620;BME280;10469;42.720;23.252;2024-01-16T10:11:03;94472.97;;;4.15;100.00
20620;BME280;10469;42.720;23.252;2024-01-16T10:13:29;94477.69;;;3.93;100.00
20620;BME280;10469;42.720;23.252;2024-01-16T10:15:55;94498.03;;;4.45;100.00
20620;BME280;10469;42.720;23.252;2024-01-16T10:18:28;94490.75;;;4.86;100.00
20620;BME280;10469;42.720;23.252;2024-01-16T10:20:57;94487.97;;;4.67;100.00
20620;BME280;10469;42.720;23.252;2024-01-16T10:23:24;94501.78;;;4.83;100.00
20620;BME280;10469;42.720;23.252;2024-01-16T10:26:10;94512.78;;;4.15;100.00
20620;BME280;10469;42.720;23.252;2024-01-16T10:28:38;94507.66;;;4.33;100.00
20620;BME280;10469;42.720;23.252;2024-01-16T10:31:05;94513.31;;;4.63;100.00
20620;BME280;10469;42.720;23.252;2024-01-16T10:33:31;94491.38;;;5.26;100.00
20620;BME280;10469;42.720;23.252;2024-01-16T10:36:13;94515.38;;;4.55;100.00
20620;BME280;10469;42.720;23.252;2024-01-16T10:38:43;94510.03;;;4.61;100.00
20620;BME280;10469;42.720;23.252;2024-01-16T10:41:16;94500.16;;;4.88;100.00
20620;BME280;10469;42.720;23.252;2024-01-16T10:43:44;94510.22;;;4.73;100.00
20620;BME280;10469;42.720;23.252;2024-01-16T10:46:15;94500.22;;;4.62;100.00
20620;BME280;10469;42.720;23.252;2024-01-16T10:48:45;94501.13;;;4.22;100.00
20620;BME280;10469;42.720;23.252;2024-01-16T10:51:23;94503.59;;;3.84;100.00
20620;BME280;10469;42.720;23.252;2024-01-16T10:53:51;94489.63;;;4.55;100.00
20620;BME280;10469;42.720;23.252;2024-01-16T10:56:21;94497.09;;;4.85;100.00
20620;BME280;10469;42.720;23.252;2024-01-16T10:58:51;94510.38;;;4.78;100.00
20620;BME280;10469;42.720;23.252;2024-01-16T11:01:21;94501.97;;;4.03;100.00
20620;BME280;10469;42.720;23.252;2024-01-16T11:03:48;94515.41;;;4.01;100.00
20620;BME280;10469;42.720;23.252;2024-01-16T11:06:16;94511.13;;;4.20;100.00
20620;BME280;10469;42.720;23.252;2024-01-16T11:08:42;94509.50;;;4.13;100.00
20620;BME280;10469;42.720;23.252;2024-01-16T11:11:08;94506.31;;;4.75;100.00
20620;BME280;10469;42.720;23.252;2024-01-16T11:13:35;94516.25;;;4.15;100.00
20620;BME280;10469;42.720;23.252;2024-01-16T11:16:05;94528.56;;;4.74;100.00
20620;BME280;10469;42.720;23.252;2024-01-16T11:18:34;94521.16;;;3.72;100.00
20620;BME280;10469;42.720;23.252;2024-01-16T11:21:01;94518.91;;;3.69;100.00
20620;BME280;10469;42.720;23.252;2024-01-16T11:23:28;94519.31;;;3.86;100.00
20620;BME280;10469;42.720;23.252;2024-01-16T11:25:54;94525.59;;;3.51;100.00
20620;BME280;10469;42.720;23.252;2024-01-16T11:28:19;94502.38;;;3.87;100.00
20620;BME280;10469;42.720;23.252;2024-01-16T11:30:45;94507.88;;;4.12;100.00
20620;BME280;10469;42.720;23.252;2024-01-16T11:36:03;94534.00;;;4.08;100.00
20620;BME280;10469;42.720;23.252;2024-01-16T11:38:29;94525.00;;;4.42;100.00
20620;BME280;10469;42.720;23.252;2024-01-16T11:40:58;94518.69;;;3.84;100.00
20620;BME280;10469;42.720;23.252;2024-01-16T11:45:59;94539.28;;;3.55;100.00
20620;BME280;10469;42.720;23.252;2024-01-16T11:48:25;94541.94;;;3.75;100.00
20620;BME280;10469;42.720;23.252;2024-01-16T11:50:52;94536.22;;;3.65;100.00
20620;BME280;10469;42.720;23.252;2024-01-16T11:53:37;94519.81;;;3.28;100.00
20620;BME280;10469;42.720;23.252;2024-01-16T11:59:02;94521.38;;;2.96;100.00
20620;BME280;10469;42.720;23.252;2024-01-16T12:01:35;94521.69;;;3.41;100.00
20620;BME280;10469;42.720;23.252;2024-01-16T12:04:07;94557.19;;;3.40;100.00
20620;BME280;10469;42.720;23.252;2024-01-16T12:06:36;94555.56;;;3.39;100.00
20620;BME280;10469;42.720;23.252;2024-01-16T12:09:12;94561.88;;;3.38;100.00
20620;BME280;10469;42.720;23.252;2024-01-16T12:11:39;94574.59;;;3.08;100.00
20620;BME280;10469;42.720;23.252;2024-01-16T12:14:05;94558.22;;;3.52;100.00
20620;BME280;10469;42.720;23.252;2024-01-16T12:16:31;94558.44;;;3.57;100.00
20620;BME280;10469;42.720;23.252;2024-01-16T12:19:10;94552.16;;;3.71;100.00
20620;BME280;10469;42.720;23.252;2024-01-16T12:21:41;94537.81;;;3.33;100.00
20620;BME280;10469;42.720;23.252;2024-01-16T12:24:08;94550.03;;;3.34;100.00
20620;BME280;10469;42.720;23.252;2024-01-16T12:26:33;94550.78;;;3.14;100.00
20620;BME280;10469;42.720;23.252;2024-01-16T12:28:59;94565.84;;;3.14;100.00
20620;BME280;10469;42.720;23.252;2024-01-16T12:31:26;94564.44;;;3.11;100.00
20620;BME280;10469;42.720;23.252;2024-01-16T12:33:52;94557.09;;;3.13;100.00
20620;BME280;10469;42.720;23.252;2024-01-16T12:36:18;94559.19;;;3.24;100.00
20620;BME280;10469;42.720;23.252;2024-01-16T12:38:44;94564.31;;;3.33;100.00
20620;BME280;10469;42.720;23.252;2024-01-16T12:41:11;94559.44;;;3.49;100.00
20620;BME280;10469;42.720;23.252;2024-01-16T12:43:37;94581.03;;;3.40;100.00
20620;BME280;10469;42.720;23.252;2024-01-16T12:46:04;94577.63;;;3.59;100.00
20620;BME280;10469;42.720;23.252;2024-01-16T12:48:29;94569.81;;;3.38;100.00
20620;BME280;10469;42.720;23.252;2024-01-16T12:50:59;94564.66;;;3.16;100.00
20620;BME280;10469;42.720;23.252;2024-01-16T12:53:28;94561.78;;;3.11;100.00
20620;BME280;10469;42.720;23.252;2024-01-16T12:55:58;94568.19;;;3.43;100.00